Coral Coast — WDF5120 — position and weather

sailwx.info

Track history (hours):
 
Tides and Currents Weather Stations Pressure Air Temp Water Temp Dewpoint Dewpoint Depression Visibility Wind Speed Wind Dir Waves Ship Positions

Coral Coast

Owner: Dann MarineTowing, LC., Chesapeake City, MD. More information available from US FCC via Universal Licensing System and Coast Guard Vessel Documentation Center.

Last reported at 2016-May-02 02:30 UTC. Time now 2016-May-03 08:43 UTC.
Position N 27°05' W 080°00'.

Length 70 m; draft 5.3 m.

Type: Tug. MMSI: 367459570.

Date/timePositionNaut miles runAvg speedWind from/ knotsBaromVisibWave heightAir tempDewpointWater temp
2016-May-02 02:30N 27°05' W 080°00'7 7.5
2016-May-02 01:34N 26°58' W 079°60'9 9.1
2016-May-02 00:34N 26°49' W 079°58'9 8.9
2016-May-01 23:32N 26°39' W 079°59'8 8.3
2016-May-01 22:34N 26°31' W 079°60'8 7.5
2016-May-01 21:34N 26°24' W 080°01'8 7.7
2016-May-01 20:34N 26°16' W 080°02'8 7.5
2016-May-01 19:33N 26°09' W 080°03'8 7.9
2016-May-01 18:34N 26°01' W 080°03'1010.0
2016-May-01 17:34N 25°51' W 080°03'  
2016-Apr-24 12:32N 25°39' W 080°01'7 7.0
2016-Apr-24 11:33N 25°45' W 080°02'8 7.6
2016-Apr-24 10:33N 25°53' W 080°02'8 8.4
2016-Apr-24 09:33N 26°01' W 080°02'8 8.4
2016-Apr-24 08:33N 26°10' W 080°03'8 7.9
2016-Apr-24 07:33N 26°18' W 080°02'7 7.0
2016-Apr-24 06:33N 26°25' W 080°01'6 6.4
2016-Apr-24 05:33N 26°31' W 080°01'14 6.9
2016-Apr-24 03:30N 26°45' W 079°59'7 7.3
2016-Apr-24 02:33N 26°52' W 079°58'8 7.4
2016-Apr-24 01:32N 26°60' W 079°58'  
Track history (hours):
 
Tides and Currents Weather Stations Pressure Air Temp Water Temp Dewpoint Dewpoint Depression Visibility Wind Speed Wind Dir Waves Ship Positions

Coral Coast

Owner: Dann MarineTowing, LC., Chesapeake City, MD. More information available from US FCC via Universal Licensing System and Coast Guard Vessel Documentation Center.

Last reported at 2016-May-02 02:30 UTC. Time now 2016-May-03 08:43 UTC.
Position N 27°05' W 080°00'.

Length 70 m; draft 5.3 m.

Type: Tug. MMSI: 367459570.

Date/timePositionNaut miles runAvg speedWind from/ knotsBaromVisibWave heightAir tempDewpointWater temp
2016-May-02 02:30N 27°05' W 080°00'7 7.5
2016-May-02 01:34N 26°58' W 079°60'9 9.1
2016-May-02 00:34N 26°49' W 079°58'9 8.9
2016-May-01 23:32N 26°39' W 079°59'8 8.3
2016-May-01 22:34N 26°31' W 079°60'8 7.5
2016-May-01 21:34N 26°24' W 080°01'8 7.7
2016-May-01 20:34N 26°16' W 080°02'8 7.5
2016-May-01 19:33N 26°09' W 080°03'8 7.9
2016-May-01 18:34N 26°01' W 080°03'1010.0
2016-May-01 17:34N 25°51' W 080°03'  
2016-Apr-24 12:32N 25°39' W 080°01'7 7.0
2016-Apr-24 11:33N 25°45' W 080°02'8 7.6
2016-Apr-24 10:33N 25°53' W 080°02'8 8.4
2016-Apr-24 09:33N 26°01' W 080°02'8 8.4
2016-Apr-24 08:33N 26°10' W 080°03'8 7.9
2016-Apr-24 07:33N 26°18' W 080°02'7 7.0
2016-Apr-24 06:33N 26°25' W 080°01'6 6.4
2016-Apr-24 05:33N 26°31' W 080°01'14 6.9
2016-Apr-24 03:30N 26°45' W 079°59'7 7.3
2016-Apr-24 02:33N 26°52' W 079°58'8 7.4
2016-Apr-24 01:32N 26°60' W 079°58'  

Dump ship's entire track history